Time;durP1;ratioP1;P1;durP2;ratioP2;P2;SDS_P1;SDS_P2;PMS_P1;PMS_P2;Temp;Humidity;BMP_temperature;BMP_pressure;BME280_temperature;BME280_humidity;BME280_pressure;Samples;Min_cycle;Max_cycle;Signal;HPM_P1;HPM_P2
2023/02/12 00:00:14;;;;;;;;;17.25;14.00;;;;;10.57;64.53;103004.25;6335940;22;45409;-76
2023/02/12 00:02:39;;;;;;;;;18.25;14.25;;;;;10.57;64.60;103003.41;6334609;22;46306;-76
2023/02/12 00:05:06;;;;;;;;;12.25;6.75;;;;;10.51;64.81;103005.31;6334694;22;46483;-73
2023/02/12 00:10:53;;;;;;;;;10.75;9.25;;;;;10.47;64.89;102993.19;6335433;22;45742;-76
2023/02/12 00:13:19;;;;;;;;;11.50;11.00;;;;;10.44;65.06;103001.16;6335121;22;45547;-76
2023/02/12 00:15:44;;;;;;;;;12.00;11.50;;;;;10.43;64.89;102996.81;6335906;22;46200;-75
2023/02/12 00:18:10;;;;;;;;;11.00;11.00;;;;;10.42;65.01;102983.75;6335678;22;45510;-76
2023/02/12 00:20:37;;;;;;;;;12.25;9.25;;;;;10.41;64.91;102989.94;6335008;22;45509;-76
2023/02/12 00:26:24;;;;;;;;;13.50;12.50;;;;;10.39;65.29;102986.50;6335161;22;46055;-76
2023/02/12 00:28:50;;;;;;;;;18.25;13.00;;;;;10.35;65.33;102979.66;6335443;22;45486;-75
2023/02/12 00:31:25;;;;;;;;;13.75;13.25;;;;;10.38;65.35;102983.03;6307712;22;45754;-74
2023/02/12 00:33:51;;;;;;;;;15.50;12.25;;;;;10.34;65.53;102978.78;6307113;22;48810;-75
2023/02/12 00:36:19;;;;;;;;;15.25;12.25;;;;;10.32;65.36;102974.50;6334299;22;46247;-74
2023/02/12 00:38:45;;;;;;;;;14.50;11.75;;;;;10.40;65.31;102985.59;6334296;22;45834;-73
2023/02/12 00:41:10;;;;;;;;;18.75;16.25;;;;;10.39;65.54;102973.41;6334287;22;45444;-75
2023/02/12 00:43:36;;;;;;;;;21.00;16.00;;;;;10.42;65.25;102984.63;6334056;22;46429;-75
2023/02/12 00:46:02;;;;;;;;;18.75;15.25;;;;;10.37;65.55;102964.72;6334294;22;46454;-74
2023/02/12 00:48:27;;;;;;;;;23.00;17.75;;;;;10.39;65.35;102981.25;6306108;22;45523;-73
2023/02/12 00:50:52;;;;;;;;;16.75;15.25;;;;;10.46;65.24;102982.78;6334720;22;45471;-75
2023/02/12 00:56:40;;;;;;;;;22.50;16.00;;;;;10.42;65.76;102976.75;6334278;22;46021;-75
2023/02/12 00:59:07;;;;;;;;;17.00;15.75;;;;;10.46;65.80;102985.41;6333607;22;45426;-76
2023/02/12 01:01:32;;;;;;;;;17.25;13.50;;;;;10.29;65.99;102964.13;6306193;22;45547;-73
2023/02/12 01:03:58;;;;;;;;;22.25;14.75;;;;;10.41;65.85;102992.56;6333539;22;46324;-76
2023/02/12 01:06:23;;;;;;;;;18.50;14.25;;;;;10.39;65.91;102989.97;6333752;22;46988;-75
2023/02/12 01:08:54;;;;;;;;;19.25;15.75;;;;;10.39;66.13;102983.88;6333918;22;45451;-74
2023/02/12 01:11:19;;;;;;;;;21.50;14.75;;;;;10.32;65.70;102979.72;6334583;22;45628;-74
2023/02/12 01:13:45;;;;;;;;;17.00;16.00;;;;;10.29;65.91;102972.84;6333968;22;46342;-73
2023/02/12 01:16:18;;;;;;;;;19.75;16.75;;;;;10.33;65.93;102974.44;6334811;22;45512;-75
2023/02/12 01:18:44;;;;;;;;;16.25;14.00;;;;;10.34;65.97;102980.53;6334833;22;45438;-75
2023/02/12 01:21:13;;;;;;;;;22.25;18.50;;;;;10.34;65.76;102977.94;6334513;22;45446;-74
2023/02/12 01:27:00;;;;;;;;;20.25;16.50;;;;;10.32;65.78;102971.88;6334265;22;46118;-73
2023/02/12 01:29:25;;;;;;;;;18.25;16.50;;;;;10.34;66.04;102983.16;6334904;22;45556;-76
2023/02/12 01:31:50;;;;;;;;;17.25;13.50;;;;;10.28;66.19;102967.63;6335009;22;45875;-75
2023/02/12 01:34:16;;;;;;;;;14.00;12.75;;;;;10.22;65.93;102968.69;6335477;22;45408;-76
2023/02/12 01:36:42;;;;;;;;;17.00;13.00;;;;;10.25;66.08;102970.38;6334994;22;46070;-75
2023/02/12 01:39:09;;;;;;;;;18.25;13.00;;;;;10.28;66.24;102980.75;6333375;22;45705;-76
2023/02/12 01:41:40;;;;;;;;;18.75;12.75;;;;;10.25;66.46;102976.47;6335486;22;45572;-75
2023/02/12 01:44:15;;;;;;;;;13.50;12.75;;;;;10.24;66.26;102980.00;6334850;22;46464;-76
2023/02/12 01:46:43;;;;;;;;;12.50;11.50;;;;;10.18;66.20;102966.22;6333945;22;45921;-76
2023/02/12 01:49:15;;;;;;;;;15.75;14.00;;;;;10.17;66.41;102978.47;6334773;22;45355;-76
2023/02/12 01:51:43;;;;;;;;;21.75;16.75;;;;;10.10;66.40;102969.91;6305940;22;45902;-74
2023/02/12 01:57:34;;;;;;;;;13.25;12.50;;;;;10.03;66.34;102962.28;6333892;22;45778;-75
2023/02/12 02:00:03;;;;;;;;;16.50;13.25;;;;;10.12;66.65;102977.72;6334005;22;45735;-73
2023/02/12 02:02:30;;;;;;;;;11.75;11.75;;;;;10.11;66.23;102979.47;6333678;22;45791;-74
2023/02/12 02:05:02;;;;;;;;;15.50;10.50;;;;;10.00;66.19;102963.22;6333081;22;47722;-74
2023/02/12 02:07:28;;;;;;;;;11.50;9.75;;;;;10.04;66.23;102971.88;6334605;22;46052;-75
2023/02/12 02:09:55;;;;;;;;;11.00;7.00;;;;;10.00;66.16;102957.13;6335623;22;45438;-75
2023/02/12 02:15:06;;;;;;;;;6.25;5.00;;;;;10.01;65.95;102957.09;6335256;22;46028;-72
2023/02/12 02:17:42;;;;;;;;;5.00;3.50;;;;;10.05;65.82;102966.56;6334557;22;46520;-74
2023/02/12 02:20:44;;;;;;;;;4.50;4.00;;;;;10.07;66.01;102967.38;6334593;22;45380;-73
2023/02/12 02:23:31;;;;;;;;;4.25;4.25;;;;;10.09;65.70;102969.97;6334822;22;45529;-73
2023/02/12 02:26:34;;;;;;;;;2.75;2.75;;;;;10.11;65.43;102968.13;6305731;22;47891;-73
2023/02/12 02:29:26;;;;;;;;;1.50;1.25;;;;;10.12;65.39;102969.84;6334212;22;46116;-74
2023/02/12 02:32:01;;;;;;;;;5.00;3.00;;;;;10.15;65.26;102961.88;6334413;22;45614;-74
2023/02/12 02:34:43;;;;;;;;;1.50;1.00;;;;;10.18;65.39;102958.38;6305851;22;45855;-74
2023/02/12 02:40:16;;;;;;;;;3.25;2.25;;;;;10.16;65.14;102947.94;6334105;22;45995;-73
2023/02/12 02:42:53;;;;;;;;;2.00;2.00;;;;;10.09;65.01;102935.91;6334077;22;45607;-73
2023/02/12 02:46:03;;;;;;;;;3.75;1.75;;;;;10.19;64.93;102947.84;6334185;22;45639;-75
2023/02/12 02:48:35;;;;;;;;;1.50;1.00;;;;;10.25;64.92;102944.19;6333820;22;46457;-73
2023/02/12 02:51:38;;;;;;;;;1.00;0.75;;;;;10.26;64.95;102944.09;6334552;22;46081;-74
2023/02/12 02:57:33;;;;;;;;;2.00;2.00;;;;;10.19;64.88;102933.88;6207101;22;45663;-74
2023/02/12 03:00:13;;;;;;;;;2.75;1.75;;;;;10.23;64.79;102938.13;6206876;22;46307;-75
2023/02/12 03:02:43;;;;;;;;;3.00;2.00;;;;;10.29;64.74;102946.66;6206414;22;47089;-73
2023/02/12 03:05:16;;;;;;;;;2.00;1.00;;;;;10.31;64.62;102942.19;6206413;22;45799;-73
2023/02/12 03:07:51;;;;;;;;;1.50;1.50;;;;;10.34;64.48;102947.34;6204984;22;45850;-75
2023/02/12 03:10:23;;;;;;;;;2.50;2.50;;;;;10.36;64.66;102944.69;6206394;22;47276;-74
2023/02/12 03:13:06;;;;;;;;;2.25;1.00;;;;;10.33;64.56;102944.78;6206531;22;46229;-74
2023/02/12 03:15:43;;;;;;;;;2.00;1.50;;;;;10.33;64.66;102939.53;6207852;22;45702;-76
2023/02/12 03:18:17;;;;;;;;;2.50;2.00;;;;;10.36;64.49;102931.59;6207496;22;45833;-73
2023/02/12 03:20:48;;;;;;;;;2.00;2.00;;;;;10.36;64.58;102928.97;6206372;22;47586;-73
2023/02/12 03:23:22;;;;;;;;;2.75;1.75;;;;;10.37;64.50;102925.41;6207517;22;45554;-74
2023/02/12 03:26:05;;;;;;;;;2.00;1.25;;;;;10.35;64.58;102928.09;6206535;22;45793;-74
2023/02/12 03:28:34;;;;;;;;;2.00;2.00;;;;;10.30;64.42;102921.31;6208742;22;45500;-75
2023/02/12 03:31:02;;;;;;;;;2.25;2.00;;;;;10.37;64.46;102933.28;6277615;22;46417;-75
2023/02/12 03:33:51;;;;;;;;;4.75;3.00;;;;;10.39;64.54;102926.22;6334226;22;47134;-74
2023/02/12 03:36:40;;;;;;;;;2.00;2.00;;;;;10.38;64.51;102920.13;6333105;22;45699;-74
2023/02/12 03:39:44;;;;;;;;;2.00;2.00;;;;;10.41;64.38;102917.44;6334214;22;45648;-74
2023/02/12 03:42:19;;;;;;;;;3.00;2.00;;;;;10.40;64.48;102913.09;6296797;22;45853;-75
2023/02/12 03:44:44;;;;;;;;;2.50;1.75;;;;;10.40;64.31;102914.84;6334216;22;46484;-74
2023/02/12 03:47:25;;;;;;;;;4.00;3.00;;;;;10.39;64.39;102921.00;6334484;22;45509;-74
2023/02/12 03:50:10;;;;;;;;;1.75;1.75;;;;;10.41;64.51;102921.81;6334599;22;45426;-74
2023/02/12 03:52:36;;;;;;;;;2.00;2.00;;;;;10.40;64.35;102920.09;6332641;22;47266;-74
2023/02/12 03:55:04;;;;;;;;;2.00;2.00;;;;;10.40;64.24;102920.94;6333871;22;45610;-73
2023/02/12 03:57:37;;;;;;;;;4.25;2.75;;;;;10.36;64.34;102916.72;6332732;22;45454;-73
2023/02/12 04:00:08;;;;;;;;;3.50;3.00;;;;;10.35;64.18;102919.38;6305461;22;45440;-74
2023/02/12 04:02:33;;;;;;;;;5.75;3.00;;;;;10.35;64.46;102915.00;6332455;22;47429;-74
2023/02/12 04:05:05;;;;;;;;;2.75;2.25;;;;;10.35;64.22;102914.16;6333326;22;45502;-73
2023/02/12 04:07:30;;;;;;;;;3.25;2.50;;;;;10.36;64.30;102914.09;6333076;22;45674;-75
2023/02/12 04:09:55;;;;;;;;;4.75;2.75;;;;;10.35;64.38;102911.53;6305205;22;45950;-73
2023/02/12 04:12:38;;;;;;;;;2.50;2.50;;;;;10.35;63.98;102915.00;6332314;22;45631;-74
2023/02/12 04:15:42;;;;;;;;;3.00;2.50;;;;;10.35;64.22;102916.75;6332770;22;46417;-75
2023/02/12 04:18:10;;;;;;;;;6.00;3.00;;;;;10.33;64.20;102916.81;6206612;22;45413;-74
2023/02/12 04:21:00;;;;;;;;;2.75;2.00;;;;;10.32;64.23;102920.31;6207034;22;45565;-74
2023/02/12 04:23:28;;;;;;;;;5.00;4.75;;;;;10.34;64.20;102921.16;6182243;22;46282;-74
2023/02/12 04:26:07;;;;;;;;;3.00;2.00;;;;;10.35;64.38;102919.38;6207974;22;46302;-75
2023/02/12 04:28:35;;;;;;;;;5.50;3.00;;;;;10.35;64.17;102924.63;6208456;22;45724;-74
2023/02/12 04:31:16;;;;;;;;;4.25;2.00;;;;;10.34;64.21;102922.91;6208897;22;45741;-74
2023/02/12 04:33:48;;;;;;;;;2.00;2.00;;;;;10.22;63.96;102904.97;6208105;22;45665;-74
2023/02/12 04:36:25;;;;;;;;;1.75;1.75;;;;;10.25;64.23;102920.59;6208478;22;46185;-73
2023/02/12 04:42:12;;;;;;;;;6.50;3.00;;;;;10.29;63.89;102930.06;6207710;22;45538;-74
2023/02/12 04:44:41;;;;;;;;;3.00;3.00;;;;;10.28;63.96;102930.97;6208063;22;45554;-74
2023/02/12 04:47:07;;;;;;;;;2.50;1.25;;;;;10.29;64.02;102930.06;6207888;22;46058;-75
2023/02/12 04:49:32;;;;;;;;;3.00;3.00;;;;;10.28;64.10;102928.34;6208315;22;45494;-75
2023/02/12 04:51:57;;;;;;;;;3.00;3.00;;;;;10.29;64.02;102938.78;6236049;22;45827;-75
2023/02/12 04:57:45;;;;;;;;;4.25;3.75;;;;;10.26;64.36;102927.53;6334357;22;46062;-74
2023/02/12 05:00:12;;;;;;;;;3.00;2.75;;;;;10.24;64.22;102924.13;6332696;22;45842;-74
2023/02/12 05:02:38;;;;;;;;;6.00;3.25;;;;;10.24;64.24;102921.50;6333854;22;45457;-72
2023/02/12 05:05:04;;;;;;;;;8.75;4.50;;;;;10.21;64.28;102918.97;6283043;22;46643;-74
2023/02/12 05:07:29;;;;;;;;;3.75;3.00;;;;;10.24;64.16;102935.47;6302992;22;46216;-75
2023/02/12 05:13:16;;;;;;;;;6.25;4.00;;;;;10.23;64.13;102925.88;6303106;22;45611;-73
2023/02/12 05:15:41;;;;;;;;;4.75;4.00;;;;;10.18;64.11;102919.94;6302953;22;45453;-74
2023/02/12 05:18:07;;;;;;;;;3.00;2.00;;;;;10.18;64.15;102926.94;6302292;22;46138;-77
2023/02/12 05:20:32;;;;;;;;;6.00;2.25;;;;;10.15;64.25;102922.59;6303084;22;45573;-74
2023/02/12 05:22:57;;;;;;;;;3.00;3.00;;;;;10.14;63.90;102922.66;6303212;22;45658;-74
2023/02/12 05:28:44;;;;;;;;;6.00;5.00;;;;;10.13;64.35;102928.81;6302625;22;45680;-74
2023/02/12 05:31:14;;;;;;;;;3.00;3.00;;;;;10.02;64.39;102898.59;6302393;22;45513;-74
2023/02/12 05:33:44;;;;;;;;;3.75;3.00;;;;;10.14;64.26;102915.66;6304512;22;45437;-75
2023/02/12 05:36:13;;;;;;;;;5.00;5.00;;;;;10.16;64.22;102920.84;6304586;22;45563;-75
2023/02/12 05:38:38;;;;;;;;;6.25;5.75;;;;;10.16;64.33;102911.25;6303308;22;46292;-75
2023/02/12 05:44:25;;;;;;;;;2.50;2.50;;;;;10.16;64.27;102908.63;6303058;22;45602;-74
2023/02/12 05:46:51;;;;;;;;;4.00;3.00;;;;;10.20;64.17;102914.66;6302638;22;46361;-74
2023/02/12 05:49:16;;;;;;;;;6.00;5.00;;;;;10.18;64.11;102916.44;6302930;22;45616;-75
2023/02/12 05:51:42;;;;;;;;;2.50;2.00;;;;;10.17;64.05;102914.72;6301573;22;45588;-75
2023/02/12 05:54:07;;;;;;;;;4.25;3.75;;;;;10.16;64.00;102915.59;6302501;22;45418;-75
2023/02/12 05:59:54;;;;;;;;;2.00;1.50;;;;;10.08;64.24;102906.25;6302800;22;45966;-75
2023/02/12 06:02:19;;;;;;;;;2.75;2.00;;;;;10.11;64.06;102914.00;6302794;22;45607;-76
2023/02/12 06:04:44;;;;;;;;;3.25;2.75;;;;;10.11;64.10;102914.00;6322079;22;45747;-74
2023/02/12 06:07:09;;;;;;;;;2.00;2.00;;;;;10.11;64.32;102916.63;6306701;22;46395;-76
2023/02/12 06:09:36;;;;;;;;;4.50;2.75;;;;;10.08;64.07;102910.63;6334813;22;46413;-74
2023/02/12 06:15:22;;;;;;;;;5.00;3.00;;;;;10.04;64.01;102904.63;6334473;22;45411;-75
2023/02/12 06:17:48;;;;;;;;;5.00;5.00;;;;;10.03;64.14;102900.31;6333967;22;46956;-74
2023/02/12 06:20:13;;;;;;;;;8.00;5.75;;;;;10.01;64.23;102893.38;6334394;22;45517;-75
2023/02/12 06:22:38;;;;;;;;;4.25;3.00;;;;;10.04;64.19;102906.41;6333733;22;45508;-75
2023/02/12 06:25:04;;;;;;;;;7.00;6.50;;;;;10.05;64.18;102905.47;6334659;22;45550;-74
2023/02/12 06:27:30;;;;;;;;;5.75;5.00;;;;;10.03;64.30;102899.44;6333918;22;45528;-75
2023/02/12 06:29:55;;;;;;;;;5.50;4.25;;;;;10.04;64.25;102901.16;6334187;22;46111;-75
2023/02/12 06:32:21;;;;;;;;;4.25;3.00;;;;;10.03;64.14;102900.31;6333964;22;45427;-75
2023/02/12 06:34:46;;;;;;;;;6.00;5.75;;;;;10.03;64.47;102905.53;6334501;22;45526;-74
2023/02/12 06:37:12;;;;;;;;;4.75;4.75;;;;;10.03;64.39;102913.41;6333463;22;47489;-75
2023/02/12 06:39:37;;;;;;;;;2.00;2.00;;;;;10.02;64.37;102898.59;6333628;22;46230;-75
2023/02/12 06:45:24;;;;;;;;;5.00;3.00;;;;;10.03;64.19;102907.31;6334560;22;45722;-74
2023/02/12 06:47:50;;;;;;;;;5.00;5.00;;;;;10.02;64.22;102900.34;6334531;22;45676;-74
2023/02/12 06:50:15;;;;;;;;;6.00;6.00;;;;;9.98;64.31;102898.75;6305659;22;46932;-74
2023/02/12 06:52:41;;;;;;;;;5.00;3.50;;;;;10.01;64.41;102902.09;6335434;22;46271;-73
2023/02/12 06:55:06;;;;;;;;;6.25;6.25;;;;;9.98;64.34;102902.22;6334445;22;45485;-73
2023/02/12 07:00:53;;;;;;;;;8.00;6.00;;;;;10.05;64.41;102913.31;6334547;22;45765;-75
2023/02/12 07:03:19;;;;;;;;;4.25;4.00;;;;;10.03;64.06;102909.91;6335658;22;45587;-75
2023/02/12 07:05:45;;;;;;;;;5.25;2.75;;;;;10.06;64.27;102929.00;6303450;22;45562;-74
2023/02/12 07:08:10;;;;;;;;;6.00;5.00;;;;;10.06;64.36;102921.16;6302704;22;46767;-74
2023/02/12 07:10:35;;;;;;;;;5.00;5.00;;;;;10.01;64.38;102923.06;6302306;22;45938;-75
2023/02/12 07:13:01;;;;;;;;;5.50;5.50;;;;;10.02;64.25;102926.53;6302395;22;45573;-75
2023/02/12 07:15:26;;;;;;;;;4.00;4.00;;;;;10.00;64.35;102931.81;6303775;22;45584;-74
2023/02/12 07:17:52;;;;;;;;;6.00;5.25;;;;;10.00;64.17;102931.81;6304620;22;45554;-74
2023/02/12 07:20:18;;;;;;;;;7.50;4.50;;;;;9.99;64.10;102937.94;6302846;22;46832;-74
2023/02/12 07:22:44;;;;;;;;;5.50;3.00;;;;;9.98;64.29;102943.25;6304159;22;45529;-74
2023/02/12 07:25:09;;;;;;;;;2.50;2.00;;;;;9.96;64.39;102939.81;6305020;22;45699;-75
2023/02/12 07:30:58;;;;;;;;;6.00;4.00;;;;;9.97;64.32;102936.28;6302546;22;45983;-75
2023/02/12 07:33:23;;;;;;;;;3.00;3.00;;;;;9.99;64.63;102945.81;6303270;22;45715;-75
2023/02/12 07:35:49;;;;;;;;;5.50;3.75;;;;;9.94;64.34;102939.84;6305635;22;45755;-73
2023/02/12 07:38:14;;;;;;;;;5.25;3.00;;;;;10.02;64.16;102935.25;6274785;22;46388;-73
2023/02/12 07:40:40;;;;;;;;;5.00;3.00;;;;;10.02;64.32;102943.09;6302178;22;45791;-73
2023/02/12 07:46:32;;;;;;;;;5.50;4.50;;;;;10.02;64.25;102945.72;6302976;22;45657;-74
2023/02/12 07:49:00;;;;;;;;;3.00;3.00;;;;;9.92;64.43;102922.50;6301829;22;46390;-74
2023/02/12 07:51:26;;;;;;;;;3.00;3.00;;;;;10.02;64.47;102937.88;6301953;22;45592;-73
2023/02/12 07:53:52;;;;;;;;;6.00;5.00;;;;;10.06;64.43;102946.47;6302415;22;45571;-75
2023/02/12 07:56:21;;;;;;;;;4.25;2.25;;;;;10.07;64.33;102942.94;6302790;22;45532;-74
2023/02/12 07:58:50;;;;;;;;;5.00;5.00;;;;;10.09;64.28;102936.75;6303357;22;46746;-73
2023/02/12 08:01:36;;;;;;;;;2.75;2.25;;;;;10.07;64.10;102941.19;6302792;22;45994;-73
2023/02/12 08:04:06;;;;;;;;;3.25;3.00;;;;;10.10;64.04;102937.59;6311799;22;45849;-73
2023/02/12 08:06:35;;;;;;;;;6.00;5.00;;;;;10.15;63.95;102945.34;6333710;22;45538;-73
2023/02/12 08:09:02;;;;;;;;;4.00;3.00;;;;;10.18;64.05;102934.78;6335224;22;46262;-74
2023/02/12 08:11:29;;;;;;;;;5.00;5.00;;;;;10.14;64.15;102928.78;6333880;22;46974;-74
2023/02/12 08:13:56;;;;;;;;;4.00;3.75;;;;;10.22;63.97;102945.13;6334667;22;45417;-73
2023/02/12 08:16:24;;;;;;;;;6.00;6.00;;;;;10.18;63.88;102937.41;6306205;22;45572;-75
2023/02/12 08:18:54;;;;;;;;;6.00;5.25;;;;;10.18;63.88;102932.16;6334676;22;46197;-76
2023/02/12 08:21:22;;;;;;;;;6.00;5.00;;;;;10.16;63.91;102928.69;6333972;22;46012;-76
2023/02/12 08:23:51;;;;;;;;;7.25;4.00;;;;;10.26;64.19;102945.84;6335027;22;45519;-75
2023/02/12 08:32:44;;;;;;;;;3.25;3.25;;;;;10.23;63.95;102941.59;6334000;22;46003;-77
2023/02/12 08:35:09;;;;;;;;;5.75;4.00;;;;;10.31;63.87;102951.84;6335857;22;45706;-75
2023/02/12 08:37:34;;;;;;;;;9.75;5.00;;;;;10.23;63.86;102940.75;6306666;22;45854;-70
2023/02/12 08:40:06;;;;;;;;;5.00;5.00;;;;;10.37;63.86;102951.63;6333658;22;46543;-71
2023/02/12 08:42:32;;;;;;;;;3.00;3.00;;;;;10.07;63.71;102909.78;6334083;22;45917;-71
2023/02/12 08:44:57;;;;;;;;;5.00;4.00;;;;;10.44;63.88;102968.84;6306420;22;45687;-70
2023/02/12 08:47:22;;;;;;;;;6.00;4.50;;;;;10.46;63.90;102965.28;6333880;22;45734;-72
2023/02/12 08:49:48;;;;;;;;;3.00;3.00;;;;;10.38;63.63;102946.34;6306015;22;47978;-71
2023/02/12 08:52:14;;;;;;;;;4.25;4.25;;;;;10.37;63.52;102943.75;6305908;22;45948;-72
2023/02/12 08:54:40;;;;;;;;;4.50;3.00;;;;;10.51;63.35;102970.38;6334416;22;45552;-73
2023/02/12 08:57:05;;;;;;;;;2.00;2.00;;;;;10.48;63.42;102963.47;6306514;22;45852;-72
2023/02/12 08:59:31;;;;;;;;;3.25;3.00;;;;;10.51;63.33;102965.16;6333883;22;46605;-70
2023/02/12 09:01:56;;;;;;;;;2.50;2.50;;;;;10.56;63.33;102962.38;6334316;22;45545;-72
2023/02/12 09:04:24;;;;;;;;;3.00;2.50;;;;;10.57;63.28;102959.69;6334128;22;45781;-72
2023/02/12 09:06:50;;;;;;;;;3.25;3.00;;;;;10.59;63.22;102965.72;6333359;22;45677;-70
2023/02/12 09:09:16;;;;;;;;;2.00;2.00;;;;;10.63;63.05;102969.13;6334529;22;45456;-72
2023/02/12 09:11:43;;;;;;;;;3.00;2.00;;;;;10.66;63.10;102966.38;6333672;22;46856;-71
2023/02/12 09:17:30;;;;;;;;;3.00;2.00;;;;;10.69;63.07;102956.66;6334301;22;45423;-72
2023/02/12 09:19:56;;;;;;;;;2.00;2.00;;;;;10.76;62.97;102960.78;6334249;22;46285;-70
2023/02/12 09:22:21;;;;;;;;;3.00;2.00;;;;;10.78;62.77;102958.13;6333445;22;46329;-72
2023/02/12 09:24:47;;;;;;;;;2.25;2.25;;;;;10.81;62.47;102961.47;6332505;22;45613;-70
2023/02/12 09:27:12;;;;;;;;;2.75;2.25;;;;;10.83;62.67;102964.91;6331635;22;45637;-73
2023/02/12 09:32:59;;;;;;;;;0.25;0.00;;;;;10.90;62.47;102950.66;6332811;22;46041;-74
2023/02/12 09:35:24;;;;;;;;;2.00;1.00;;;;;10.94;62.38;102952.28;6330682;22;45450;-76
2023/02/12 09:37:52;;;;;;;;;2.00;2.00;;;;;10.91;62.22;102946.28;6331380;22;45466;-77
2023/02/12 09:40:43;;;;;;;;;2.00;2.00;;;;;11.01;62.25;102955.56;6332012;22;47345;-76
2023/02/12 09:43:22;;;;;;;;;3.50;2.25;;;;;11.04;62.21;102949.34;6324602;22;47356;-75
2023/02/12 09:46:24;;;;;;;;;3.25;2.00;;;;;11.07;61.89;102946.59;6332727;22;45757;-72
2023/02/12 09:49:10;;;;;;;;;4.50;2.00;;;;;10.98;61.84;102925.94;6331318;22;45658;-74
2023/02/12 09:51:38;;;;;;;;;2.75;2.00;;;;;11.06;61.87;102944.91;6333203;22;46409;-75
2023/02/12 09:54:15;;;;;;;;;2.25;2.00;;;;;11.05;61.87;102941.41;6333242;22;46895;-74
2023/02/12 09:56:48;;;;;;;;;2.00;2.00;;;;;11.06;61.86;102948.38;6331131;22;45805;-73
2023/02/12 09:59:34;;;;;;;;;6.00;3.50;;;;;11.02;61.89;102924.91;6304746;22;45666;-78
2023/02/12 10:01:59;;;;;;;;;4.50;2.00;;;;;11.09;61.65;102937.78;6331990;22;45893;-74
2023/02/12 10:04:27;;;;;;;;;3.50;3.00;;;;;11.12;61.87;102939.44;6331755;22;45599;-75
2023/02/12 10:07:25;;;;;;;;;1.75;1.25;;;;;11.13;61.99;102931.50;6331403;22;45623;-77
2023/02/12 10:10:14;;;;;;;;;3.00;2.25;;;;;11.17;61.86;102945.38;6304930;22;45503;-75
2023/02/12 10:16:21;;;;;;;;;2.50;2.00;;;;;11.19;61.68;102928.66;6332713;22;46421;-76
2023/02/12 10:18:55;;;;;;;;;3.00;2.50;;;;;11.21;61.54;102929.47;6204184;22;45524;-75
2023/02/12 10:21:39;;;;;;;;;2.00;2.00;;;;;11.27;61.40;102936.25;6205387;22;45843;-76
2023/02/12 10:24:20;;;;;;;;;3.00;3.00;;;;;11.28;61.44;102935.34;6205921;22;45669;-75
2023/02/12 10:26:50;;;;;;;;;6.75;4.50;;;;;11.33;61.40;102939.53;6204193;22;47868;-74
2023/02/12 10:32:37;;;;;;;;;3.00;2.00;;;;;11.40;61.20;102929.63;6205591;22;45789;-75
2023/02/12 10:35:15;;;;;;;;;3.25;3.25;;;;;11.44;61.06;102922.50;6204265;22;47240;-75
2023/02/12 10:37:51;;;;;;;;;2.00;2.00;;;;;11.49;61.08;102939.81;6204103;22;47918;-75
2023/02/12 10:40:27;;;;;;;;;3.00;2.75;;;;;11.52;60.77;102930.94;6205024;22;45958;-75
2023/02/12 10:42:56;;;;;;;;;3.75;3.00;;;;;11.54;60.49;102926.50;6204562;22;45794;-73
2023/02/12 10:48:58;;;;;;;;;4.00;3.75;;;;;11.59;60.53;102928.03;6205156;22;45703;-81
2023/02/12 10:52:16;;;;;;;;;3.00;2.75;;;;;11.64;60.62;102936.59;6204574;22;45851;-83
2023/02/12 10:54:48;;;;;;;;;3.50;3.00;;;;;11.48;60.39;102898.72;6245929;22;45552;-83
2023/02/12 10:57:20;;;;;;;;;2.75;1.75;;;;;11.72;60.31;102933.66;6333243;22;45561;-83
2023/02/12 10:59:49;;;;;;;;;1.25;1.25;;;;;11.74;60.37;102929.25;6333175;22;46038;-81
2023/02/12 11:02:21;;;;;;;;;2.75;2.00;;;;;11.77;60.01;102922.09;6332562;22;45907;-73
2023/02/12 11:04:48;;;;;;;;;1.50;1.00;;;;;11.80;60.05;102922.91;6331050;22;45784;-75
2023/02/12 11:07:13;;;;;;;;;2.00;2.00;;;;;11.82;59.85;102919.31;6330684;22;47337;-73
2023/02/12 11:09:44;;;;;;;;;2.75;2.25;;;;;11.84;59.79;102916.59;6329948;22;46820;-76
2023/02/12 11:12:46;;;;;;;;;3.25;3.00;;;;;11.88;59.93;102926.06;6331821;22;45693;-72
2023/02/12 11:15:30;;;;;;;;;3.00;3.00;;;;;11.83;59.85;102899.13;6332772;22;45730;-76
2023/02/12 11:18:03;;;;;;;;;3.50;3.00;;;;;11.92;59.67;102907.53;6331872;22;45657;-77
2023/02/12 11:20:39;;;;;;;;;2.25;2.25;;;;;11.95;59.90;102914.41;6331766;22;46146;-71
2023/02/12 11:23:22;;;;;;;;;3.25;3.25;;;;;11.88;59.78;102897.16;6331741;22;45621;-73
2023/02/12 11:26:02;;;;;;;;;4.50;3.50;;;;;11.99;59.96;102919.47;6303498;22;45567;-76
2023/02/12 11:28:29;;;;;;;;;3.00;3.00;;;;;11.95;60.07;102902.13;6303895;22;48401;-72
2023/02/12 11:30:56;;;;;;;;;4.00;3.00;;;;;12.05;59.67;102899.97;6332426;22;47329;-70
2023/02/12 11:33:33;;;;;;;;;4.25;3.00;;;;;12.08;59.56;102910.38;6305414;22;45622;-70
2023/02/12 11:36:04;;;;;;;;;4.25;3.25;;;;;12.10;59.39;102895.38;6333751;22;45722;-73
2023/02/12 11:38:34;;;;;;;;;4.00;3.00;;;;;12.11;59.43;102895.34;6332819;22;46401;-71
2023/02/12 11:41:14;;;;;;;;;4.50;4.00;;;;;12.07;59.44;102885.88;6331744;22;45945;-73
2023/02/12 11:43:39;;;;;;;;;6.00;5.75;;;;;12.15;59.49;102889.03;6333432;22;45701;-74
2023/02/12 11:46:07;;;;;;;;;3.00;2.50;;;;;12.19;59.31;102892.41;6331686;22;45591;-73
2023/02/12 11:48:43;;;;;;;;;4.00;3.75;;;;;12.20;59.08;102894.94;6332090;22;47360;-73
2023/02/12 11:51:23;;;;;;;;;4.25;3.50;;;;;12.14;59.51;102873.34;6332306;22;47176;-72
2023/02/12 11:53:55;;;;;;;;;4.00;4.00;;;;;12.24;59.34;102876.44;6333763;22;45530;-73
2023/02/12 11:56:21;;;;;;;;;6.25;5.00;;;;;12.14;58.85;102857.59;6303715;22;46046;-74
2023/02/12 11:58:48;;;;;;;;;4.50;4.00;;;;;12.18;58.95;102872.31;6333698;22;45537;-72
2023/02/12 12:01:19;;;;;;;;;4.00;4.00;;;;;12.22;59.05;102868.63;6332188;22;47221;-72
2023/02/12 12:03:56;;;;;;;;;4.00;4.00;;;;;12.21;59.06;102874.78;6332813;22;45505;-70
2023/02/12 12:06:31;;;;;;;;;5.00;5.00;;;;;12.25;58.88;102879.03;6331515;22;45704;-73
2023/02/12 12:09:16;;;;;;;;;5.50;4.00;;;;;12.19;58.53;102863.50;6332942;22;46706;-73
2023/02/12 12:12:09;;;;;;;;;3.00;3.00;;;;;12.19;58.76;102864.34;6332467;22;47243;-73
2023/02/12 12:21:16;;;;;;;;;7.00;6.00;;;;;12.25;58.56;102852.75;6332257;22;45665;-73
2023/02/12 12:24:19;;;;;;;;;6.50;5.50;;;;;12.33;58.18;102861.13;6332222;22;47388;-74
2023/02/12 12:27:23;;;;;;;;;5.75;4.25;;;;;12.32;58.53;102853.31;6204827;22;45795;-72
2023/02/12 12:29:57;;;;;;;;;8.00;7.00;;;;;12.30;58.41;102842.88;6206323;22;45623;-72
2023/02/12 12:32:28;;;;;;;;;7.00;5.00;;;;;12.31;58.46;102841.94;6204927;22;45675;-72
2023/02/12 12:34:54;;;;;;;;;4.75;4.50;;;;;12.29;58.58;102838.53;6205817;22;46046;-74
2023/02/12 12:37:47;;;;;;;;;9.75;7.00;;;;;12.29;58.12;102835.06;6206072;22;45627;-73
2023/02/12 12:40:54;;;;;;;;;8.75;8.00;;;;;12.26;58.42;102822.88;6203933;22;45877;-73
2023/02/12 12:43:50;;;;;;;;;9.25;9.25;;;;;12.36;58.09;102839.13;6205822;22;45843;-73
2023/02/12 12:46:39;;;;;;;;;10.25;9.75;;;;;12.10;58.18;102799.03;6204871;22;47387;-74
2023/02/12 12:49:48;;;;;;;;;8.25;7.75;;;;;12.33;58.35;102820.84;6205872;22;45611;-73
2023/02/12 12:52:39;;;;;;;;;8.50;8.00;;;;;12.33;58.32;102824.34;6204244;22;45980;-73
2023/02/12 12:55:19;;;;;;;;;9.00;7.00;;;;;12.33;58.19;102824.34;6113753;23;45664;-77
2023/02/12 12:57:59;;;;;;;;;11.75;8.75;;;;;12.34;58.04;102819.94;6114846;23;46154;-73
2023/02/12 13:04:14;;;;;;;;;8.75;8.50;;;;;12.33;58.27;102821.72;6205751;22;45651;-75
2023/02/12 13:06:59;;;;;;;;;11.00;11.00;;;;;12.33;58.04;102831.38;6205763;22;45703;-74
2023/02/12 13:09:52;;;;;;;;;15.00;12.50;;;;;12.30;58.36;102826.25;6204020;22;46304;-73
2023/02/12 13:12:25;;;;;;;;;11.50;10.00;;;;;12.27;57.90;102824.59;6206166;22;45932;-73
2023/02/12 13:19:21;;;;;;;;;7.25;7.00;;;;;12.28;58.14;102813.16;6086349;23;46018;-70
2023/02/12 13:21:49;;;;;;;;;8.25;7.50;;;;;12.29;58.56;102808.78;6084307;23;46708;-71
2023/02/12 13:24:41;;;;;;;;;8.25;8.25;;;;;12.30;58.20;102807.84;6086248;23;45628;-72